x

9415115 - Pittsburg (suisun Bay), Ca (psbc1) Weather Station

11:48am - Mon 20th Feb 2017 All times are PST. -8 hours from GMT.

  • Wind
    8mph, 10mph gusts
  • Air Temp 56°f
  • Sea Pressure 1015.2mb
  • 9415115 - Pittsburg (suisun Bay), Ca
  • 9415115 - Pittsburg (suisun Bay), Ca

More Historic Weather Station data

Upgrade to MSW Pro to gain access to the past 30 days of data for over 8000 Wavebouys and Weather Stations around the globe.

Join Pro

Comparision Forecast

View Surf forecast
   
Mon 02/20 11:48am 8 10 mph 1015.2mb 56f
11:24am 3 5 mph 1016mb 56f
11:12am 5 6 mph 1016.2mb 56f
11:06am 3 7 mph 1016mb 56f
11:00am 7 8 mph 1015.6mb 56f
10:48am 6
mph
1015.4mb 57f
10:00am 6 9 mph 1015.2mb 55f
9:54am 6 8 mph 1015mb 55f
9:42am  -  mph 1015mb 55f
9:36am  -  mph 1014.9mb 55f
9:24am 9 11 mph 1014.8mb 55f
9:12am 10 13 mph 1014.3mb 55f
9:06am 8 10 mph 1014.5mb 55f
8:54am 8 13 mph 1014mb 55f
8:48am 10 11 mph 1014.1mb 55f
8:42am 8 10 mph 1014.4mb 55f
8:18am 9 10 mph 1014mb 55f
8:12am 8 10 mph 1014.1mb 54f
8:06am 8 10 mph 1014.1mb 54f
8:00am 8 10 mph 1014.1mb 54f
7:54am 8 10 mph 1014mb 54f
7:42am 5 9 mph 1013.7mb 55f
7:30am 9 11 mph 1013.4mb 55f
7:24am 8 10 mph 1013.3mb 54f
7:18am 8 14 mph 1013.1mb 54f
7:06am 9 11 mph 1012.6mb 53f
7:00am 10 13 mph 1012.8mb 53f
6:24am 8 9 mph 1012.9mb 53f
6:18am 7 8 mph 1012.8mb 53f
6:12am 6 8 mph 1012.6mb 53f
6:06am 7 11 mph 1012.6mb 53f
6:00am 9 11 mph 1012.4mb 53f
5:54am 10 13 mph 1012.1mb 53f
5:48am 10 14 mph 1011.7mb 53f
5:42am 11 14 mph 1011.7mb 53f
5:06am 14 17 mph 1012.2mb 53f
4:36am 16 20 mph 1011.6mb 53f
4:30am 15 20 mph 1011.5mb 53f
4:24am 16 20 mph 1011.5mb 53f
4:18am 18 22 mph 1011.3mb 53f
4:12am 15 20 mph 1011.3mb 53f
4:06am 16 20 mph 1011.1mb 53f
3:54am 20 23 mph 1011mb 53f
3:48am 18 22 mph 1011.3mb 53f
3:36am 21 25 mph 1011.1mb 53f
3:24am 18 23 mph 1011.2mb 53f
3:18am 15 20 mph 1011mb 53f
3:00am 18 23 mph 1011.1mb 53f
2:54am 21 24 mph 1010.9mb 53f
2:24am 17 22 mph 1011.1mb 53f
2:18am 18 21 mph 1011mb 53f
2:12am 16 21 mph 1011.3mb 53f
1:48am 21 25 mph 1011.3mb 54f
1:36am 18 26 mph 1010.8mb 54f
1:30am 22 28 mph 1010.8mb 54f
1:00am 17 21 mph 1011.3mb 55f
12:54am 18 24 mph 1011mb 55f
12:48am 17 23 mph 1011mb 54f
12:36am 16 22 mph 1011.6mb 54f
12:06am 13 21 mph 1011.3mb 54f
12:00am 14 17 mph 1011.3mb 54f
Sun 02/19 11:54pm 14 20 mph 1011.4mb 55f
11:48pm 14 18 mph 1011.1mb 55f
11:30pm 13 16 mph 1011.3mb 54f
11:06pm 15 18 mph 1011.1mb 55f
10:54pm 13 15 mph 1011.6mb 53f
10:48pm 11 14 mph 1012.3mb 53f
10:36pm 13 15 mph 1012.3mb 53f
10:24pm 13 16 mph 1012.6mb 54f
10:18pm 14 16 mph 1012.7mb 54f
10:12pm 14 17 mph 1012.6mb 54f
10:00pm 15 20 mph 1012.2mb 54f
9:36pm 11 15 mph 1012.7mb 55f
9:30pm 11 14 mph 1012.6mb 55f
9:24pm 13 16 mph 1012.3mb 55f
9:12pm 11 16 mph 1012.1mb 55f
9:00pm 15 17 mph 1011.5mb 54f
8:54pm 16 21 mph 1011.9mb 55f
8:48pm 13 17 mph 1012.5mb 54f
8:42pm 15 22 mph 1012.3mb 55f
8:36pm 15 20 mph 1012.2mb 54f
8:24pm 15 18 mph 1012.3mb 54f
8:06pm 18 22 mph 1011.9mb 54f
7:54pm 18 22 mph 1011.7mb 54f
7:48pm 15 21 mph 1011.7mb 54f
7:36pm 16 22 mph 1011.6mb 54f
7:24pm 18 21 mph 1011.4mb 54f
7:12pm 18 22 mph 1011.5mb 54f
7:06pm 17 22 mph 1011.5mb 54f
7:00pm 15 20 mph 1011.4mb 54f
6:42pm 17 23 mph 1011mb 54f
6:30pm 17 24 mph 1010.7mb 53f
6:12pm 14 17 mph 1011.1mb 53f
6:06pm 15 21 mph 1011mb 53f
6:00pm 15 22 mph 1010.9mb 53f
5:42pm 14 18 mph 1011.1mb 53f
5:36pm 14 18 mph 1011.1mb 53f
5:18pm 15 21 mph 1010.9mb 53f
5:06pm 11 18 mph 1010.8mb 52f
4:54pm 13 16 mph 1010.6mb 53f
4:48pm 13 16 mph 1010.6mb 53f
4:42pm 14 20 mph 1010.3mb 53f
4:24pm 13 16 mph 1010.2mb 52f
4:18pm 13 16 mph 1010.3mb 52f
3:54pm 13 15 mph 1010.4mb 52f
3:48pm 15 17 mph 1010.1mb 52f
3:30pm 20 24 mph 1009mb 52f
3:24pm 17 24 mph 1009.2mb 52f
3:18pm 20 22 mph 1009.5mb 52f
3:00pm 20 24 mph 1009.6mb 53f
2:36pm 15 17 mph 1009.9mb 53f
2:18pm 15 18 mph 1009.6mb 53f
2:12pm 16 20 mph 1009.5mb 53f
2:06pm 14 18 mph 1009.4mb 53f
1:42pm 9 10 mph 1009.9mb 53f
1:06pm 6 8 mph 1010.4mb 53f
12:42pm 10 14 mph 1010.3mb 53f
12:36pm 9 13 mph 1010.7mb 54f
12:06pm 13 15 mph 1010.7mb 55f
11:24am 9 11 mph 1010.9mb 57f
11:12am 9 11 mph 1010.8mb 57f
11:06am 10 14 mph 1010.8mb 57f
10:42am 7 11 mph 1010.8mb 55f
10:30am 10 11 mph 1010.8mb 54f
10:24am 10 14 mph 1010.6mb 55f
10:12am 10 14 mph 1010.5mb 55f
10:00am 7 11 mph 1010.6mb 55f
9:48am 9 14 mph 1010.4mb 55f
9:30am 9 11 mph 1010.2mb 54f
9:12am 11 14 mph 1010.4mb 53f
9:00am 9 11 mph 1010.2mb 53f
8:48am 8 9 mph 1010.2mb 51f
8:42am 6 8 mph 1010.2mb 51f
8:24am 6 7 mph 1010.2mb 50f
8:18am 6 9 mph 1010.1mb 50f
8:00am 6 8 mph 1010.2mb 50f
7:54am 7 9 mph 1010mb 49f
7:48am 7 9 mph 1010mb 49f
7:42am 7 8 mph 1010.2mb 49f
7:36am 7 8 mph 1010mb 49f
7:30am 7 10 mph 1010mb 49f
7:12am 9 13 mph 1010mb 49f
6:36am 11 14 mph 1009.6mb 50f
6:24am 11 13 mph 1009.7mb 50f
6:18am 10 13 mph 1009.7mb 50f
5:54am 10 13 mph 1009.8mb 49f
5:42am 11 14 mph 1009.7mb 49f
5:30am 11 13 mph 1009.8mb 48f
5:18am 11 13 mph 1009.9mb 48f
5:06am 10 13 mph 1009.9mb 48f
4:48am 8 11 mph 1009.9mb 48f
4:42am 7 8 mph 1009.9mb 48f
4:24am 7 8 mph 1009.9mb 49f
3:48am 1
mph
1009.9mb 50f
3:24am 2 5 mph 1009.6mb 49f
3:12am  -  2 mph 1009.6mb 49f
3:06am 2 6 mph 1009.7mb 50f
2:54am 3 6 mph 1009.6mb 50f
2:48am 2 3 mph 1009.5mb 50f
2:30am 7 8 mph 1009.4mb 50f
2:18am 5 7 mph 1009.4mb 50f
1:48am 7 10 mph 1009.3mb 50f
1:36am 6 11 mph 1009.1mb 50f
1:30am 7 10 mph 1009.1mb 50f
1:24am 8 13 mph 1009mb 50f
12:54am 10 14 mph 1009mb 50f
12:42am 10 15 mph 1008.8mb 50f
12:18am 9 14 mph 1008.6mb 51f
Sat 02/18 11:54pm 8 13 mph 1008.4mb 51f
11:18pm 10 15 mph 1007.8mb 51f
11:12pm 7 13 mph 1008mb 51f
11:06pm 8 13 mph 1007.8mb 51f
10:54pm 7 11 mph 1007.7mb 51f
10:36pm 3 13 mph 1007.8mb 51f
10:24pm 10 23 mph 1007.3mb 51f
10:18pm 16 23 mph 1007.1mb 51f
10:06pm 20 28 mph 1007mb 51f
10:00pm 23 32 mph 1006.9mb 51f
9:24pm 20 25 mph 1007mb 51f
9:06pm 16 21 mph 1007mb 51f
8:54pm 10 14 mph 1006.9mb 51f
8:42pm 10 14 mph 1006.8mb 51f
8:24pm 15 23 mph 1006.5mb 51f
8:12pm 18 24 mph 1005.8mb 51f
7:54pm 20 25 mph 1005.4mb 51f
7:48pm 21 25 mph 1005.2mb 51f
7:06pm 11 22 mph 1005.3mb 51f
6:48pm 5 14 mph 1005.1mb 51f
6:42pm 7 13 mph 1005mb 51f
6:30pm 8 14 mph 1004.8mb 51f
6:18pm 10 16 mph 1004.3mb 52f
6:12pm 8 14 mph 1004.3mb 52f
5:54pm 10 15 mph 1003.6mb 52f
5:48pm 9 18 mph 1003.4mb 53f
5:42pm 14 18 mph 1003.3mb 53f
5:36pm 14 21 mph 1003.5mb 53f
5:30pm 14 20 mph 1003.6mb 53f
5:24pm 15 25 mph 1003.6mb 53f
5:06pm 17 24 mph 1003.1mb 54f
4:54pm 16 24 mph 1002.9mb 54f
4:48pm 14 21 mph 1002.8mb 55f
4:36pm 15 21 mph 1002.9mb 54f
4:30pm 13 18 mph 1002.9mb 55f
4:00pm 18 25 mph 1002.3mb 55f
3:54pm 16 23 mph 1002.4mb 56f
3:48pm 17 23 mph 1002.4mb 56f
3:42pm 16 23 mph 1002.3mb 56f
3:30pm 13 16 mph 1001.8mb 57f
3:06pm 17 22 mph 1001.8mb 56f
3:00pm 15 20 mph 1001.9mb 56f
2:54pm 16 23 mph 1001.8mb 57f
2:36pm 15 18 mph 1001.5mb 56f
2:24pm 14 17 mph 1001.2mb 57f
2:18pm 15 18 mph 1001.2mb 56f
2:06pm 15 18 mph 1001.3mb 57f
1:42pm 13 16 mph 1001.4mb 57f
1:30pm 11 18 mph 1001.2mb 56f
1:18pm 15 22 mph 1001.3mb 56f
1:00pm 15 21 mph 1001.5mb 56f
12:48pm 13 20 mph 1001.6mb 56f
12:42pm 16 22 mph 1001.6mb 56f
12:24pm 15 22 mph 1001.6mb 56f
12:06pm 14 17 mph 1001.5mb 56f
11:48am 9 16 mph 1001.6mb 56f
11:24am 11 17 mph 1001.8mb 55f
11:12am 13 18 mph 1001.8mb 55f
11:06am 13 17 mph 1001.9mb 54f
10:42am 14 16 mph 1001.3mb 54f
10:36am 14 17 mph 1001.1mb 54f
10:30am 13 17 mph 1001mb 54f
10:24am 9 15 mph 1001mb 55f
10:18am 9 16 mph 1000.9mb 54f
10:12am 10 15 mph 1000.8mb 54f
10:06am 10 16 mph 1000.7mb 54f
10:00am 9 15 mph 1000.8mb 54f
9:48am 10 15 mph 1000.8mb 54f
9:42am 9 14 mph 1000.9mb 54f
9:30am 10 15 mph 1000.8mb 53f
9:24am 10 16 mph 1000.7mb 53f
9:06am 6 10 mph 1000.3mb 53f
8:54am 8 10 mph 999.9mb 52f
8:48am 8 14 mph 999.9mb 52f
8:36am 8 13 mph 999.8mb 53f
8:30am 7 11 mph 999.7mb 53f
8:24am 8 10 mph 999.6mb 53f
8:18am 7 9 mph 999.5mb 53f
8:12am 5 7 mph 999.4mb 53f
8:06am 5 6 mph 999.3mb 53f
8:00am 3 6 mph 999.2mb 53f
7:48am 3 6 mph 998.9mb 53f
7:42am 3 6 mph 998.9mb 52f
7:36am 2
mph
998.8mb 52f
7:30am  -  1 mph 998.7mb 52f
7:24am  -  mph 998.6mb 52f
7:18am  -  1 mph 998.5mb 52f
6:36am 5 6 mph 997.6mb 53f
6:30am 2 5 mph 997.6mb 52f
6:24am 1 5 mph 997.5mb 52f
6:18am 3 6 mph 997.4mb 52f
6:12am 3 5 mph 997.3mb 52f
6:06am 1 2 mph 997.2mb 52f
5:54am 2 3 mph 997mb 52f
5:48am  -  1 mph 996.9mb 52f
5:12am 6 8 mph 996.4mb 52f
5:06am 6 7 mph 996.3mb 53f
5:00am 3 5 mph 996.2mb 53f
4:54am 2 5 mph 996.2mb 53f
4:48am 3 5 mph 996.1mb 53f
4:42am 3 5 mph 996mb 53f
4:30am 5 6 mph 996mb 53f
4:24am 3
mph
996mb 53f
4:18am 3
mph
995.9mb 53f
4:12am 5 6 mph 995.8mb 53f
3:48am 1
mph
995.6mb 53f
3:36am 2 3 mph 995.4mb 53f
3:24am 3 5 mph 995.2mb 53f
3:18am 5 7 mph 995.1mb 53f
3:12am 6 7 mph 995mb 53f
3:06am 6 8 mph 994.9mb 54f
2:54am 7 10 mph 994.7mb 54f
2:42am 8 9 mph 994.5mb 53f
2:12am 8 10 mph 994.2mb 53f
2:06am 9 10 mph 994.1mb 53f
2:00am 9 10 mph 994.1mb 53f
1:54am 7 10 mph 994.1mb 54f
1:48am 8 10 mph 993.9mb 54f
1:36am 7 10 mph 993.8mb 54f
1:30am 9 11 mph 993.7mb 54f
1:24am 9 11 mph 993.6mb 54f
1:18am 9 11 mph 993.6mb 54f
1:00am 8 9 mph 993.4mb 53f
12:54am 8 10 mph 993.4mb 53f
12:48am 9 11 mph 993.3mb 53f
12:36am 10 11 mph 992.9mb 53f
12:24am 6 8 mph 992.9mb 53f
12:18am 7 9 mph 992.8mb 53f
12:12am 8 10 mph 992.8mb 53f
12:06am 10 11 mph 992.8mb 53f
12:00am 8 10 mph 992.9mb 53f
Fri 02/17 11:54pm 8 11 mph 992.8mb 53f
11:48pm 10 13 mph 992.7mb 53f
11:42pm 11 13 mph 992.6mb 53f
11:30pm 11 14 mph 992.5mb 53f
11:24pm 13 15 mph 992.5mb 53f
11:12pm 8 10 mph 992.4mb 54f
11:00pm 10 13 mph 992.3mb 53f
10:48pm 10 11 mph 992.1mb -
10:42pm 10 11 mph 991.9mb -
10:24pm 11 14 mph 991.8mb 54f
10:12pm 9 11 mph 991.9mb 54f
10:00pm 9 15 mph 991.8mb 55f
9:54pm 10 15 mph 991.7mb 55f
9:48pm 9 11 mph 991.6mb 55f
9:42pm 7 9 mph 991.4mb 55f
9:30pm 7 10 mph 991.2mb 55f
9:12pm 8 10 mph 990.8mb 56f
9:00pm 7 8 mph 990.5mb 55f
8:54pm 3 6 mph 990.4mb 55f
8:48pm 3 6 mph 990.3mb 55f
8:42pm 5 8 mph 990.1mb 55f
8:30pm 11 15 mph 989.8mb 56f
8:24pm 7 10 mph 989.6mb 56f
8:00pm 7 10 mph 989.1mb 55f
7:42pm 13 20 mph 988.3mb 55f
7:24pm 21 28 mph 987.8mb 56f
7:06pm 28 34 mph 987.4mb 57f
6:42pm 24 33 mph 987.5mb 57f
6:30pm 18 24 mph 987.7mb 56f
6:24pm 17 28 mph 987.6mb 56f
6:18pm 18 24 mph 987.7mb 55f
6:00pm 17 22 mph 987.8mb 55f
5:54pm 21 29 mph 987.8mb 55f
5:48pm 18 23 mph 988mb 55f
5:42pm 15 20 mph 988.1mb 55f
5:24pm 21 26 mph 987.6mb 55f
5:18pm 18 22 mph 987.8mb 55f
5:06pm 23 30 mph 987.9mb 55f
5:00pm 21 29 mph 988mb 55f
4:54pm 22 32 mph 988mb 55f
4:42pm 24 33 mph 987.9mb 56f
4:36pm 21 31 mph 988mb 56f
4:24pm 23 29 mph 987.9mb 55f
4:18pm 26 34 mph 987.8mb 55f
4:12pm 26 32 mph 987.9mb 56f
4:00pm 24 37 mph 988.1mb 56f
3:48pm 26 34 mph 987.9mb 56f
3:42pm 31 37 mph 987.7mb 56f
3:36pm 28 36 mph 987.8mb 56f
3:30pm 28 34 mph 987.8mb 56f
3:24pm 26 33 mph 987.9mb 56f
3:18pm 26 33 mph 988mb 56f
3:12pm 22 37 mph 988.2mb 56f
3:00pm 29 37 mph 988.1mb 56f
2:54pm 29 34 mph 988.2mb 56f
2:36pm 28 33 mph 988.1mb 56f
2:24pm 29 37 mph 988.2mb 57f
2:18pm 30 37 mph 988.1mb 56f
2:12pm 30 37 mph 988.2mb 56f
2:00pm 28 37 mph 988.3mb 56f
1:42pm 26 36 mph 988.4mb 56f
1:36pm 29 34 mph 988.5mb 55f
1:30pm 30 38 mph 988.4mb 55f
1:18pm 34 43 mph 988.3mb 55f
1:12pm 33 47 mph 988.3mb 55f
1:00pm 32 44 mph 988.4mb 55f
12:48pm 34 45 mph 988.6mb 55f
12:42pm 36 44 mph 988.5mb 55f
12:30pm 38 47 mph 988.6mb 55f
12:24pm 38 49 mph 988.5mb 55f
12:18pm 36 44 mph 988.9mb 56f
12:06pm 29 43 mph 988.9mb 53f
11:48am 33 45 mph 988.9mb 55f
11:36am 33 46 mph 989.2mb 55f
11:30am 36 46 mph 989mb 55f
11:12am 33 45 mph 989.1mb 55f
10:48am 33 46 mph 989.3mb 56f
10:42am 32 48 mph 989.7mb 56f
10:24am 31 41 mph 990mb 56f
10:12am 31 40 mph 990mb 56f
10:06am 29 40 mph 990.1mb 55f
9:36am 32 43 mph 990.5mb 55f
9:24am 31 40 mph 990.8mb 54f
9:12am 29 39 mph 991.2mb 54f
8:48am 26 34 mph 992.1mb 54f
8:24am 22 29 mph 992.6mb 54f
8:18am 22 31 mph 993mb 54f
7:54am 21 25 mph 993.4mb 53f
7:48am 22 28 mph 993.5mb 53f
7:42am 23 30 mph 993.4mb 53f
7:36am 25 30 mph 993.5mb 53f
7:30am 21 30 mph 994.1mb 53f
7:24am 23 30 mph 994.4mb 53f
7:12am 21 26 mph 994.6mb 53f
7:06am 18 26 mph 995mb 53f
7:00am 18 28 mph 995mb 53f
6:54am 17 22 mph 995.5mb 53f
6:48am 17 22 mph 995.6mb 53f
6:42am 17 23 mph 995.8mb 53f
6:36am 17 22 mph 995.9mb 53f
6:30am 17 22 mph 996.2mb 53f
6:12am 16 18 mph 996.8mb 52f
6:06am 15 18 mph 996.9mb 52f
6:00am 15 20 mph 997.2mb 52f
5:42am 14 16 mph 997.4mb 52f
5:30am 14 15 mph 998mb 52f
5:00am 10 11 mph 999.2mb 52f
4:42am 8 13 mph 999.9mb 53f
4:00am 9 11 mph 1000.7mb 53f
3:54am 10 13 mph 1000.9mb 52f
3:48am 9 11 mph 1001.2mb 52f
3:42am 7 8 mph 1001.6mb 52f
3:24am 7 9 mph 1001.8mb 52f
3:18am 5 6 mph 1002.4mb 53f
3:06am 3 6 mph 1002.8mb 54f
3:00am 5 6 mph 1003mb 54f
2:54am 5 6 mph 1003.3mb 54f
2:48am 6 7 mph 1003.5mb 54f
2:42am 3 6 mph 1003.8mb 53f
2:24am 5 6 mph 1004.5mb 53f
2:18am 5
mph
1004.2mb 53f
2:12am 1 2 mph 1004.4mb 53f
2:06am 2 6 mph 1004.4mb 53f
2:00am 5 6 mph 1004mb 53f
1:36am 7
mph
1003.9mb 54f
1:30am 5 6 mph 1004.3mb 54f
1:24am 3 5 mph 1005mb 53f
1:18am 6 7 mph 1005.1mb 53f
1:06am 6 8 mph 1005.5mb 53f
12:54am 2 5 mph 1006.2mb 53f
12:36am 5 6 mph 1006.4mb 53f
12:30am 2 3 mph 1006.5mb 53f
12:06am 2 3 mph 1006.7mb 54f
Thu 02/16 11:54pm 2 3 mph 1006.7mb 54f
11:30pm 3
mph
1006.9mb 54f
11:18pm  -  2 mph 1006.7mb 53f
11:12pm 1 2 mph 1007mb 53f
11:06pm  -  mph 1007.2mb 53f
11:00pm  -  mph 1007.4mb 53f
10:36pm 1
mph
1007.9mb 53f
10:00pm 2 3 mph 1009.1mb 54f
9:42pm 2 5 mph 1009.4mb 53f
9:36pm 5 7 mph 1009.6mb 52f
9:30pm 5 7 mph 1009.6mb 52f
9:24pm 7 8 mph 1009.7mb 54f
9:06pm 2
mph
1009.8mb 54f
8:54pm  -  1 mph 1009.9mb 54f